Time;durP1;ratioP1;P1;durP2;ratioP2;P2;SDS_P1;SDS_P2;PMS_P1;PMS_P2;Temp;Humidity;BMP_temperature;BMP_pressure;BME280_temperature;BME280_humidity;BME280_pressure;Samples;Min_cycle;Max_cycle;Signal;HPM_P1;HPM_P2
2022/12/04 00:01:20;;;;;;;7.80;3.70;;;;;;;-6.11;67.90;101565.25;24632;1327;3025551;-65
2022/12/04 00:03:56;;;;;;;8.40;2.90;;;;;;;-6.17;68.05;101569.27;24546;1325;3049972;-64
2022/12/04 00:06:26;;;;;;;9.10;3.50;;;;;;;-6.11;67.55;101568.14;24543;1326;3067701;-67
2022/12/04 00:08:55;;;;;;;6.90;3.10;;;;;;;-6.24;67.91;101568.27;24569;1327;3030551;-66
2022/12/04 00:11:27;;;;;;;13.90;4.30;;;;;;;-6.41;67.90;101561.80;24608;1320;3025822;-71
2022/12/04 00:13:56;;;;;;;10.00;3.20;;;;;;;-6.34;67.15;101567.71;24591;1327;3068742;-63
2022/12/04 00:16:28;;;;;;;6.40;3.00;;;;;;;-6.25;67.12;101560.58;24584;1331;3028844;-69
2022/12/04 00:18:57;;;;;;;7.70;2.80;;;;;;;-6.23;66.73;101563.38;24590;1317;3026805;-64
2022/12/04 00:21:26;;;;;;;8.90;3.50;;;;;;;-6.19;67.25;101563.23;24595;1326;3028511;-63
2022/12/04 00:23:55;;;;;;;5.00;3.00;;;;;;;-6.27;66.74;101567.50;24561;1331;3049411;-65
2022/12/04 00:26:25;;;;;;;10.00;3.10;;;;;;;-6.28;66.37;101566.61;24574;1323;3026110;-66
2022/12/04 00:28:54;;;;;;;7.80;3.40;;;;;;;-6.26;66.13;101562.42;24563;1326;3068220;-66
2022/12/04 00:31:25;;;;;;;10.10;3.10;;;;;;;-6.31;66.23;101566.15;24574;1323;3028287;-65
2022/12/04 00:33:54;;;;;;;11.60;3.50;;;;;;;-6.27;65.87;101563.92;24611;1326;3026541;-67
2022/12/04 00:36:23;;;;;;;7.40;2.70;;;;;;;-6.27;65.25;101563.91;24617;1318;3028333;-62
2022/12/04 00:38:53;;;;;;;6.50;2.90;;;;;;;-6.41;65.11;101559.24;24586;1325;3050247;-66
2022/12/04 00:41:23;;;;;;;5.80;3.00;;;;;;;-6.39;65.30;101561.01;24554;1318;3026390;-64
2022/12/04 00:43:52;;;;;;;6.70;2.80;;;;;;;-6.48;65.50;101559.29;24581;1327;3068089;-61
2022/12/04 00:46:21;;;;;;;13.20;3.80;;;;;;;-6.42;65.37;101562.61;24540;1318;3026505;-66
2022/12/04 00:48:51;;;;;;;8.80;2.60;;;;;;;-6.40;65.29;101559.80;24586;1326;3048652;-64
2022/12/04 00:51:21;;;;;;;8.10;2.70;;;;;;;-6.41;65.14;101565.20;24562;1318;3027104;-63
2022/12/04 00:53:51;;;;;;;5.10;2.60;;;;;;;-6.38;64.53;101565.16;24626;1327;3052277;-65
2022/12/04 00:56:22;;;;;;;9.90;3.00;;;;;;;-6.39;64.27;101563.59;24603;1333;3026819;-64
2022/12/04 00:58:53;;;;;;;5.60;2.50;;;;;;;-6.42;64.13;101562.96;24534;1327;3028372;-65
2022/12/04 01:01:22;;;;;;;8.30;2.50;;;;;;;-6.44;63.92;101563.90;24633;1330;3026383;-66
2022/12/04 01:03:52;;;;;;;5.70;2.70;;;;;;;-6.55;64.29;101560.55;24553;1320;3025250;-63
2022/12/04 01:06:23;;;;;;;4.00;2.30;;;;;;;-6.55;63.86;101562.93;24612;1330;3068978;-66
2022/12/04 01:08:52;;;;;;;6.90;2.00;;;;;;;-6.60;64.18;101570.89;24602;1327;3026902;-67
2022/12/04 01:11:22;;;;;;;7.40;2.30;;;;;;;-6.60;64.38;101567.30;24559;1331;3025819;-62
2022/12/04 01:13:51;;;;;;;9.50;2.60;;;;;;;-6.60;63.65;101565.61;24604;1326;3026061;-64
2022/12/04 01:16:25;;;;;;;5.90;2.20;;;;;;;-6.58;63.71;101569.76;24571;1327;3027891;-64
2022/12/04 01:18:53;;;;;;;7.00;2.40;;;;;;;-6.68;63.67;101569.84;24542;1327;3051506;-64
2022/12/04 01:21:23;;;;;;;9.30;2.50;;;;;;;-6.73;63.55;101573.90;24598;1325;3028840;-63
2022/12/04 01:23:52;;;;;;;10.00;2.70;;;;;;;-6.84;63.90;101576.16;24610;1327;3051648;-66
2022/12/04 01:26:21;;;;;;;12.80;3.00;;;;;;;-6.74;63.23;101578.30;24591;1317;3028457;-62
2022/12/04 01:28:50;;;;;;;8.50;2.40;;;;;;;-6.69;63.00;101580.58;24579;1327;3052237;-65
2022/12/04 01:31:19;;;;;;;6.10;2.80;;;;;;;-6.78;63.18;101578.63;24591;1318;3026481;-62
2022/12/04 01:33:48;;;;;;;6.90;3.10;;;;;;;-6.80;63.10;101577.21;24603;1327;3055975;-71
2022/12/04 01:36:20;;;;;;;5.50;2.30;;;;;;;-6.78;62.99;101581.02;24543;1327;3028854;-65
2022/12/04 01:38:48;;;;;;;7.60;2.00;;;;;;;-6.70;63.04;101576.92;24644;1326;3026177;-66
2022/12/04 01:41:23;;;;;;;7.10;2.20;;;;;;;-6.87;63.04;101580.96;24540;1310;3025847;-61
2022/12/04 01:44:22;;;;;;;6.20;2.30;;;;;;;-6.75;62.82;101582.69;24599;1323;3053808;-63
2022/12/04 01:46:52;;;;;;;4.50;2.30;;;;;;;-6.98;62.78;101578.42;24571;1327;3052451;-63
2022/12/04 01:49:42;;;;;;;11.90;2.70;;;;;;;-6.96;62.93;101579.39;24625;1325;3026325;-64
2022/12/04 01:52:14;;;;;;;7.00;3.10;;;;;;;-6.93;62.72;101579.69;24631;1326;3052701;-63
2022/12/04 01:54:45;;;;;;;5.50;2.00;;;;;;;-6.85;62.33;101581.23;24515;1333;3028593;-63
2022/12/04 01:57:21;;;;;;;6.40;2.00;;;;;;;-6.82;61.93;101582.89;24627;1326;3025833;-67
2022/12/04 01:59:56;;;;;;;5.40;2.00;;;;;;;-6.84;61.98;101587.39;24546;1327;3050598;-66
2022/12/04 02:02:28;;;;;;;4.90;2.00;;;;;;;-6.89;62.00;101585.48;24567;1326;3056312;-64
2022/12/04 02:04:57;;;;;;;2.80;1.50;;;;;;;-6.96;62.40;101585.13;24582;1320;3026630;-65
2022/12/04 02:07:26;;;;;;;7.50;2.00;;;;;;;-6.76;61.28;101586.89;24549;1330;3026007;-67
2022/12/04 02:10:02;;;;;;;5.30;2.00;;;;;;;-6.77;61.44;101585.99;24518;1327;3056432;-64
2022/12/04 02:12:57;;;;;;;3.30;1.70;;;;;;;-6.77;61.22;101591.82;24490;1313;3051929;-64
2022/12/04 02:15:34;;;;;;;3.70;1.90;;;;;;;-6.69;61.01;101595.36;24631;1327;3052708;-64
2022/12/04 02:18:21;;;;;;;4.70;1.80;;;;;;;-6.65;60.74;101603.88;24525;1327;3051532;-65
2022/12/04 02:21:06;;;;;;;4.70;1.60;;;;;;;-6.68;60.33;101603.44;24559;1328;3052774;-65
2022/12/04 02:23:59;;;;;;;6.80;1.80;;;;;;;-6.77;60.25;101609.16;24588;1335;3049369;-63
2022/12/04 02:26:42;;;;;;;4.60;1.80;;;;;;;-7.03;60.72;101610.06;24627;1318;3069446;-64
2022/12/04 02:29:24;;;;;;;;;;;;;;;-6.91;61.05;101608.24;24559;1327;3049730;-62
2022/12/04 02:31:53;;;;;;;4.40;1.80;;;;;;;-6.96;61.20;101607.65;24609;1327;3055532;-62
2022/12/04 02:34:24;;;;;;;5.70;1.50;;;;;;;-6.99;61.00;101610.42;24560;1327;3025966;-65
2022/12/04 02:37:00;;;;;;;4.80;1.70;;;;;;;-7.01;60.87;101609.33;24576;1327;3049721;-65
2022/12/04 02:39:40;;;;;;;3.40;1.20;;;;;;;-6.84;60.39;101608.52;24658;1326;3056655;-62
2022/12/04 02:42:32;;;;;;;4.60;1.50;;;;;;;-6.87;60.20;101611.31;24562;1327;3052549;-65
2022/12/04 02:45:12;;;;;;;5.00;1.70;;;;;;;-6.87;60.21;101617.42;24652;1327;3052787;-62
2022/12/04 02:47:41;;;;;;;5.00;1.80;;;;;;;-6.84;60.49;101612.95;24555;1318;3050644;-64
2022/12/04 02:50:13;;;;;;;4.00;1.60;;;;;;;-7.02;60.64;101620.50;24669;1327;3024833;-65
2022/12/04 02:53:09;;;;;;;3.50;1.50;;;;;;;-6.85;60.23;101613.44;24618;1327;3025852;-61
2022/12/04 02:55:44;;;;;;;2.70;1.70;;;;;;;-6.79;59.80;101618.14;24630;1326;3069491;-65
2022/12/04 02:58:16;;;;;;;3.90;1.50;;;;;;;-6.89;59.56;101617.67;24525;1327;3050539;-63
2022/12/04 03:00:46;;;;;;;3.60;1.50;;;;;;;-6.90;59.55;101623.60;24617;1327;3026002;-64
2022/12/04 03:03:20;;;;;;;5.20;1.60;;;;;;;-6.96;59.54;101627.07;24662;1320;3026232;-64
2022/12/04 03:05:52;;;;;;;4.90;1.40;;;;;;;-7.11;60.35;101623.00;24571;1327;3052406;-67
2022/12/04 03:08:25;;;;;;;3.40;1.50;;;;;;;-7.05;59.97;101620.52;24559;1326;3028547;-65
2022/12/04 03:10:56;;;;;;;2.90;1.30;;;;;;;-6.95;59.88;101619.27;24568;1325;3051897;-63
2022/12/04 03:13:42;;;;;;;3.30;1.30;;;;;;;-7.01;59.69;101621.39;24632;1327;3026333;-64
2022/12/04 03:16:14;;;;;;;3.10;1.20;;;;;;;-7.05;60.65;101624.98;24573;1320;3069999;-62
2022/12/04 03:18:55;;;;;;;2.40;1.30;;;;;;;-7.03;60.08;101624.04;24644;1333;3028971;-67
2022/12/04 03:21:28;;;;;;;4.60;1.40;;;;;;;-6.94;59.53;101618.50;24634;1332;3056588;-64
2022/12/04 03:24:09;;;;;;;4.20;1.70;;;;;;;-6.89;59.97;101618.71;24572;1325;3028986;-68
2022/12/04 03:27:08;;;;;;;2.30;1.10;;;;;;;-7.03;59.76;101620.61;24609;1310;3053009;-66
2022/12/04 03:30:02;;;;;;;4.90;1.60;;;;;;;-7.08;60.17;101617.68;24524;1326;3052572;-66
2022/12/04 03:32:49;;;;;;;2.20;1.10;;;;;;;-7.14;60.12;101626.96;24567;1327;3053108;-68
2022/12/04 03:35:20;;;;;;;2.90;1.70;;;;;;;-7.11;60.09;101629.13;24568;1336;3050611;-64
2022/12/04 03:38:28;;;;;;;7.10;1.30;;;;;;;-7.10;60.31;101628.86;24530;1329;3026119;-68
2022/12/04 03:41:06;;;;;;;3.00;1.00;;;;;;;-7.05;60.45;101629.04;24580;1327;3050623;-60
2022/12/04 03:43:44;;;;;;;4.60;1.60;;;;;;;-7.03;59.85;101629.33;24621;1326;3056296;-68
2022/12/04 03:46:32;;;;;;;2.30;1.30;;;;;;;-7.07;60.15;101626.58;24601;1316;3052511;-64
2022/12/04 03:49:05;;;;;;;3.20;1.20;;;;;;;-7.17;59.84;101631.08;24596;1334;3053729;-66
2022/12/04 03:51:42;;;;;;;2.60;1.20;;;;;;;-7.09;60.00;101633.96;24650;1326;3026339;-66
2022/12/04 03:54:28;;;;;;;2.70;1.40;;;;;;;-7.00;60.26;101624.66;24607;1327;3051836;-63
2022/12/04 03:57:04;;;;;;;2.50;1.30;;;;;;;-7.07;59.87;101628.13;24559;1333;3049211;-64
2022/12/04 03:59:48;;;;;;;4.00;1.40;;;;;;;-7.25;60.58;101626.92;24603;1326;3069552;-64
2022/12/04 04:02:19;;;;;;;4.30;1.50;;;;;;;-7.23;60.27;101626.19;24575;1320;3049801;-63
2022/12/04 04:04:50;;;;;;;2.50;1.00;;;;;;;-7.30;60.27;101632.70;24567;1326;3026111;-64
2022/12/04 04:07:22;;;;;;;3.00;1.10;;;;;;;-7.29;60.31;101638.34;24548;1312;3025784;-66
2022/12/04 04:09:55;;;;;;;3.00;1.30;;;;;;;-7.07;60.40;101639.52;24566;1327;3026906;-61
2022/12/04 04:12:26;;;;;;;2.60;1.30;;;;;;;-7.16;59.87;101644.74;23976;1320;3037643;-64
2022/12/04 04:26:33;;;;;;;4.50;1.40;;;;;;;-7.06;59.28;101670.60;24588;1327;3050044;-64
2022/12/04 04:29:02;;;;;;;2.40;1.30;;;;;;;-7.07;59.41;101661.48;24667;1326;3026386;-68
2022/12/04 04:32:00;;;;;;;4.80;1.30;;;;;;;-7.18;59.94;101664.74;24620;1324;3026156;-65
2022/12/04 04:35:03;;;;;;;2.90;1.10;;;;;;;-7.10;59.55;101664.27;24610;1327;3057054;-61
2022/12/04 04:37:35;;;;;;;3.10;1.40;;;;;;;-7.08;59.66;101664.85;24626;1327;3052908;-66
2022/12/04 04:40:10;;;;;;;9.30;1.90;;;;;;;-7.00;59.78;101666.76;24615;1333;3026394;-67
2022/12/04 04:42:45;;;;;;;2.70;1.10;;;;;;;-7.15;59.77;101670.02;24547;1317;3050434;-67
2022/12/04 04:45:22;;;;;;;4.30;1.30;;;;;;;-7.09;59.59;101671.12;24587;1326;3051433;-67
2022/12/04 04:48:13;;;;;;;2.50;1.60;;;;;;;-7.16;59.60;101673.88;24569;1320;3048526;-63
2022/12/04 04:50:42;;;;;;;6.80;1.50;;;;;;;-7.16;59.33;101675.41;24479;1334;3068366;-66
2022/12/04 04:53:14;;;;;;;5.50;1.90;;;;;;;-7.30;59.62;101676.48;24565;1318;3028430;-67
2022/12/04 04:55:43;;;;;;;2.20;1.30;;;;;;;-7.32;59.39;101683.50;24666;1336;3049654;-67
2022/12/04 04:58:14;;;;;;;3.90;1.40;;;;;;;-7.17;58.81;101686.42;24634;1320;3026211;-70
2022/12/04 05:00:49;;;;;;;5.00;1.40;;;;;;;-7.02;58.92;101685.10;24645;1325;3052827;-69
2022/12/04 05:03:18;;;;;;;1.50;0.90;;;;;;;-7.11;59.20;101687.39;24580;1319;3049362;-64
2022/12/04 05:05:48;;;;;;;4.30;1.40;;;;;;;-7.14;59.00;101688.63;24582;1319;3026566;-64
2022/12/04 05:08:17;;;;;;;3.10;1.00;;;;;;;-7.04;58.74;101688.55;24690;1320;3026188;-68
2022/12/04 05:10:46;;;;;;;2.80;1.40;;;;;;;-7.13;59.26;101685.27;24584;1318;3047881;-63
2022/12/04 05:13:15;;;;;;;3.20;1.60;;;;;;;-7.14;59.00;101683.19;24580;1318;3025795;-65
2022/12/04 05:15:44;;;;;;;4.90;1.40;;;;;;;-7.17;58.61;101681.30;24599;1320;3052478;-64
2022/12/04 05:18:13;;;;;;;3.80;1.30;;;;;;;-7.26;58.69;101681.41;24539;1320;3026587;-63
2022/12/04 05:20:42;;;;;;;4.00;1.50;;;;;;;-7.26;58.76;101684.50;24552;1316;3051665;-66
2022/12/04 05:23:11;;;;;;;4.00;1.30;;;;;;;-7.19;58.99;101684.14;24605;1317;3027990;-65
2022/12/04 05:25:40;;;;;;;3.60;1.70;;;;;;;-7.21;59.17;101689.16;24553;1320;3052783;-66
2022/12/04 05:28:09;;;;;;;3.10;1.30;;;;;;;-7.32;59.05;101692.35;24570;1323;3025846;-66
2022/12/04 05:30:38;;;;;;;2.90;1.10;;;;;;;-7.15;58.81;101698.77;24534;1326;3052389;-69
2022/12/04 05:33:08;;;;;;;3.10;1.70;;;;;;;-7.16;58.92;101699.42;24683;1320;3028617;-70
2022/12/04 05:35:37;;;;;;;2.10;0.90;;;;;;;-7.21;58.95;101703.44;24563;1326;3055344;-67
2022/12/04 05:38:06;;;;;;;2.60;1.10;;;;;;;-7.17;58.99;101708.39;24621;1319;3028556;-68
2022/12/04 05:40:35;;;;;;;6.60;1.50;;;;;;;-7.23;59.27;101705.60;24557;1326;3049901;-64
2022/12/04 05:43:04;;;;;;;6.10;1.50;;;;;;;-7.27;58.74;101704.85;24602;1320;3025847;-70
2022/12/04 05:45:34;;;;;;;1.60;1.10;;;;;;;-7.24;59.04;101703.64;24628;1328;3070713;-68
2022/12/04 05:48:04;;;;;;;2.50;1.20;;;;;;;-7.36;58.90;101699.69;24683;1320;3029294;-67
2022/12/04 05:50:33;;;;;;;3.80;1.90;;;;;;;-7.37;58.78;101705.23;24591;1327;3028245;-67
2022/12/04 05:53:02;;;;;;;4.20;1.80;;;;;;;-7.33;58.50;101708.83;24557;1323;3068048;-67
2022/12/04 05:55:31;;;;;;;4.80;1.80;;;;;;;-7.12;58.36;101713.58;24620;1320;3028513;-65
2022/12/04 05:58:00;;;;;;;3.60;1.60;;;;;;;-7.08;58.11;101713.24;24654;1327;3048929;-66
2022/12/04 06:00:30;;;;;;;2.40;1.40;;;;;;;-7.13;58.30;101719.69;24530;1327;3029224;-68
2022/12/04 06:02:59;;;;;;;5.00;1.60;;;;;;;-7.19;58.34;101715.13;24625;1317;3028674;-65
2022/12/04 06:05:28;;;;;;;7.20;1.80;;;;;;;-7.18;58.48;101719.79;24620;1326;3026051;-66
2022/12/04 06:07:57;;;;;;;4.60;1.50;;;;;;;-7.25;58.16;101713.31;24689;1327;3026504;-65
2022/12/04 06:10:27;;;;;;;2.90;1.10;;;;;;;-7.16;57.78;101718.80;24586;1327;3049126;-69
2022/12/04 06:12:57;;;;;;;2.40;1.00;;;;;;;-7.12;57.26;101718.17;24559;1326;3025366;-66
2022/12/04 06:15:25;;;;;;;5.80;1.70;;;;;;;-6.94;57.44;101719.00;24541;1320;3028357;-68
2022/12/04 06:17:54;;;;;;;4.10;1.70;;;;;;;-6.91;57.39;101720.33;24615;1319;3026280;-67
2022/12/04 06:20:23;;;;;;;3.60;1.70;;;;;;;-6.92;57.17;101721.52;24547;1321;3056743;-64
2022/12/04 06:22:52;;;;;;;5.00;1.90;;;;;;;-6.89;57.19;101716.70;24631;1319;3025968;-66
2022/12/04 06:25:21;;;;;;;3.00;1.20;;;;;;;-6.86;56.67;101725.34;24627;1327;3049930;-64
2022/12/04 06:27:51;;;;;;;3.90;1.30;;;;;;;-6.87;56.66;101722.60;24557;1313;3029363;-62
2022/12/04 06:30:20;;;;;;;7.60;1.70;;;;;;;-6.85;56.37;101720.10;24572;1325;3028921;-65
2022/12/04 06:32:49;;;;;;;4.70;1.60;;;;;;;-6.77;56.63;101725.79;24571;1333;3050056;-67
2022/12/04 06:35:19;;;;;;;2.60;1.40;;;;;;;-6.69;56.76;101727.14;24638;1318;3028797;-64
2022/12/04 06:37:49;;;;;;;3.40;1.60;;;;;;;-6.62;56.31;101727.48;24539;1326;3025968;-65
2022/12/04 06:40:18;;;;;;;6.50;1.80;;;;;;;-6.51;56.05;101730.86;24625;1312;3027568;-63
2022/12/04 06:42:47;;;;;;;6.30;1.70;;;;;;;-6.45;55.27;101728.05;24633;1320;3055749;-65
2022/12/04 06:45:16;;;;;;;3.70;1.70;;;;;;;-6.36;54.95;101728.45;24645;1320;3028347;-67
2022/12/04 06:47:45;;;;;;;4.70;1.70;;;;;;;-6.48;55.26;101732.18;24539;1327;3049087;-66
2022/12/04 06:50:14;;;;;;;4.70;1.50;;;;;;;-6.40;54.84;101736.66;24623;1320;3028698;-67
2022/12/04 06:52:43;;;;;;;7.10;2.20;;;;;;;-6.44;54.73;101740.91;24524;1320;3068899;-64
2022/12/04 06:55:12;;;;;;;5.50;1.80;;;;;;;-6.46;54.55;101738.25;24598;1315;3028921;-63
2022/12/04 06:57:41;;;;;;;3.00;1.60;;;;;;;-6.41;54.54;101738.79;24593;1320;3049273;-68
2022/12/04 07:00:12;;;;;;;7.30;2.30;;;;;;;-6.42;54.60;101744.08;24565;1326;3028811;-65
2022/12/04 07:02:40;;;;;;;5.00;1.80;;;;;;;-6.27;54.29;101740.80;24585;1327;3025763;-66
2022/12/04 07:05:14;;;;;;;6.60;2.20;;;;;;;-6.23;53.83;101741.14;24590;1327;3025808;-68
2022/12/04 07:07:43;;;;;;;3.80;1.60;;;;;;;-6.12;53.33;101741.30;24608;1326;3028513;-66
2022/12/04 07:10:12;;;;;;;5.50;2.00;;;;;;;-5.98;53.42;101736.92;24604;1326;3049804;-62
2022/12/04 07:12:45;;;;;;;5.30;1.70;;;;;;;-5.98;53.67;101740.52;24588;1327;3027882;-65
2022/12/04 07:15:14;;;;;;;5.70;2.20;;;;;;;-5.97;53.63;101738.35;24616;1326;3026589;-66
2022/12/04 07:17:44;;;;;;;5.30;1.90;;;;;;;-6.04;52.98;101740.80;24580;1327;3050195;-64
2022/12/04 07:20:13;;;;;;;3.60;1.70;;;;;;;-5.93;52.83;101737.30;24606;1320;3026471;-61
2022/12/04 07:22:42;;;;;;;6.30;2.00;;;;;;;-5.75;52.60;101739.60;24549;1326;3067057;-62
2022/12/04 07:25:39;;;;;;;;;;;;;;;-5.59;52.35;101738.90;24593;1320;3049824;-66
2022/12/04 07:28:08;;;;;;;2.70;1.20;;;;;;;-5.59;51.75;101742.98;24574;1324;3028253;-64
2022/12/04 07:30:37;;;;;;;3.50;1.40;;;;;;;-5.38;51.58;101739.06;24584;1316;3028711;-64
2022/12/04 07:33:07;;;;;;;3.40;1.20;;;;;;;-5.34;51.70;101740.44;24634;1327;3049508;-67
2022/12/04 07:35:36;;;;;;;4.80;1.60;;;;;;;-5.34;51.47;101736.00;24641;1325;3027991;-68
2022/12/04 07:38:05;;;;;;;4.70;1.70;;;;;;;-5.34;51.11;101737.17;24567;1318;3026515;-61
2022/12/04 07:40:36;;;;;;;5.60;1.80;;;;;;;-5.13;50.82;101741.27;24585;1327;3049156;-65
2022/12/04 07:43:05;;;;;;;2.70;1.30;;;;;;;-5.15;50.42;101742.71;24594;1327;3025837;-64
2022/12/04 07:45:38;;;;;;;5.10;1.60;;;;;;;-5.30;50.59;101740.10;24561;1320;3029122;-65
2022/12/04 07:48:07;;;;;;;3.50;1.80;;;;;;;-5.48;50.64;101737.11;24599;1326;3026421;-68
2022/12/04 07:50:38;;;;;;;3.20;1.40;;;;;;;-5.32;50.12;101738.96;24649;1327;3025911;-62
2022/12/04 07:53:07;;;;;;;4.70;1.70;;;;;;;-5.25;49.99;101735.14;24632;1318;3026250;-62
2022/12/04 07:55:36;;;;;;;3.60;1.80;;;;;;;-5.12;49.92;101740.63;24635;1323;3052208;-64
2022/12/04 07:58:05;;;;;;;3.00;1.60;;;;;;;-5.15;49.86;101745.13;24617;1327;3025979;-62
2022/12/04 08:00:36;;;;;;;6.40;1.70;;;;;;;-4.79;49.87;101745.49;24704;1320;3052270;-63
2022/12/04 08:03:06;;;;;;;4.60;1.60;;;;;;;-4.81;49.13;101743.71;24701;1326;3028768;-64
2022/12/04 08:05:37;;;;;;;5.60;1.10;;;;;;;-4.80;49.15;101742.05;24630;1318;3026632;-62
2022/12/04 08:08:06;;;;;;;4.90;1.60;;;;;;;-4.87;49.45;101743.48;24651;1326;3028192;-63
2022/12/04 08:10:35;;;;;;;2.30;1.50;;;;;;;-4.73;49.18;101746.07;24584;1327;3052835;-64
2022/12/04 08:13:04;;;;;;;9.00;2.00;;;;;;;-4.59;49.36;101748.47;24621;1322;3025879;-63
2022/12/04 08:15:34;;;;;;;6.90;1.90;;;;;;;-4.73;49.14;101750.00;24591;1327;3052010;-62
2022/12/04 08:18:04;;;;;;;5.90;1.90;;;;;;;-4.56;49.04;101741.40;24598;1326;3026933;-62
2022/12/04 08:20:34;;;;;;;6.30;2.40;;;;;;;-4.64;48.39;101740.59;24633;1319;3026782;-63
2022/12/04 08:23:06;;;;;;;3.80;1.70;;;;;;;-4.68;48.52;101738.02;24654;1327;3026048;-64
2022/12/04 08:25:39;;;;;;;4.80;1.30;;;;;;;-4.52;48.39;101736.07;24550;1326;3028829;-63
2022/12/04 08:28:08;;;;;;;5.30;2.00;;;;;;;-4.23;48.15;101731.13;24627;1319;3026674;-65
2022/12/04 08:30:39;;;;;;;4.20;1.80;;;;;;;-4.21;47.42;101726.95;24642;1327;3027117;-64
2022/12/04 08:33:33;;;;;;;;;;;;;;;-3.91;47.64;101724.08;24603;1318;3057230;-65
2022/12/04 08:36:05;;;;;;;4.30;1.60;;;;;;;-4.09;47.27;101721.38;24616;1318;3028914;-65
2022/12/04 08:38:35;;;;;;;6.40;1.50;;;;;;;-4.05;47.69;101719.64;24614;1331;3051271;-63
2022/12/04 08:41:05;;;;;;;5.10;2.00;;;;;;;-3.87;46.99;101721.10;24597;1319;3028337;-62
2022/12/04 08:43:34;;;;;;;3.20;1.40;;;;;;;-3.80;47.02;101716.05;24572;1326;3068982;-64
2022/12/04 08:46:06;;;;;;;3.70;1.70;;;;;;;-3.86;46.92;101714.98;24643;1319;3025965;-63
2022/12/04 08:48:37;;;;;;;6.00;2.00;;;;;;;-3.83;46.78;101715.42;24573;1326;3026477;-64
2022/12/04 08:51:08;;;;;;;3.90;1.80;;;;;;;-3.90;46.50;101712.77;24572;1320;3028467;-63
2022/12/04 08:53:38;;;;;;;6.00;2.00;;;;;;;-3.85;46.37;101713.63;24574;1327;3049107;-64
2022/12/04 08:56:07;;;;;;;5.50;2.30;;;;;;;-3.91;46.59;101714.82;24568;1326;3028647;-64
2022/12/04 08:58:37;;;;;;;7.30;2.20;;;;;;;-3.63;46.63;101715.77;24565;1326;3067992;-64
2022/12/04 09:01:09;;;;;;;2.90;1.30;;;;;;;-3.48;46.44;101708.71;24599;1326;3028449;-63
2022/12/04 09:03:38;;;;;;;5.50;1.60;;;;;;;-3.28;45.72;101705.40;24614;1319;3049141;-64
2022/12/04 09:06:09;;;;;;;4.70;1.60;;;;;;;-3.31;45.40;101703.43;24595;1319;3029147;-65
2022/12/04 09:08:38;;;;;;;4.80;1.90;;;;;;;-3.47;45.34;101697.94;24601;1327;3025974;-61
2022/12/04 09:11:10;;;;;;;3.90;1.40;;;;;;;-3.55;45.66;101698.72;24587;1326;3028020;-62
2022/12/04 09:13:40;;;;;;;7.20;1.80;;;;;;;-3.37;45.37;101698.59;24598;1326;3026505;-63
2022/12/04 09:16:16;;;;;;;4.00;2.00;;;;;;;-3.32;45.62;101699.62;24627;1327;3026203;-63
2022/12/04 09:18:45;;;;;;;4.70;2.00;;;;;;;-3.10;45.55;101695.52;24577;1327;3051988;-63
2022/12/04 09:21:16;;;;;;;4.10;1.50;;;;;;;-3.21;45.27;101691.91;24554;1321;3024800;-63
2022/12/04 09:23:46;;;;;;;8.70;2.40;;;;;;;-3.15;44.80;101692.96;24622;1327;3026549;-63
2022/12/04 09:26:18;;;;;;;4.90;2.00;;;;;;;-3.04;44.77;101688.67;24555;1320;3028265;-64
2022/12/04 09:28:48;;;;;;;4.60;1.80;;;;;;;-3.09;44.93;101685.41;24713;1327;3052867;-62
2022/12/04 09:31:17;;;;;;;5.00;2.00;;;;;;;-3.07;44.50;101685.49;24680;1327;3026429;-62
2022/12/04 09:33:46;;;;;;;5.10;1.90;;;;;;;-3.24;44.57;101688.04;24602;1321;3029589;-64
2022/12/04 09:36:15;;;;;;;4.80;2.20;;;;;;;-3.13;44.67;101681.88;24639;1317;3028439;-62
2022/12/04 09:38:49;;;;;;;6.20;2.20;;;;;;;-3.23;44.76;101677.61;24641;1332;3048909;-62
2022/12/04 09:41:35;;;;;;;4.10;1.80;;;;;;;-3.04;44.62;101671.20;24663;1326;3068516;-62
2022/12/04 09:44:07;;;;;;;6.30;1.80;;;;;;;-2.82;44.32;101666.00;24639;1326;3049356;-63
2022/12/04 09:46:42;;;;;;;12.10;2.10;;;;;;;-2.75;43.78;101667.92;24584;1326;3028477;-63
2022/12/04 09:49:35;;;;;;;7.30;2.20;;;;;;;-2.79;43.45;101663.34;24589;1327;3050872;-62
2022/12/04 09:52:57;;;;;;;4.20;1.50;;;;;;;-2.56;43.19;101663.64;24535;1326;3054025;-62
2022/12/04 09:55:54;;;;;;;6.40;2.00;;;;;;;-2.45;42.29;101661.39;24607;1327;3052131;-63
2022/12/04 09:58:27;;;;;;;4.40;2.00;;;;;;;-2.42;42.98;101658.39;24604;1328;3052494;-63
2022/12/04 10:02:01;;;;;;;2.60;1.30;;;;;;;-2.38;42.79;101656.09;24597;1318;3050479;-66
2022/12/04 10:04:30;;;;;;;4.70;2.10;;;;;;;-2.28;42.44;101651.89;24579;1319;3068894;-66
2022/12/04 10:07:28;;;;;;;4.20;2.10;;;;;;;-2.53;42.85;101647.45;24577;1330;3049719;-66
2022/12/04 10:10:07;;;;;;;6.30;2.30;;;;;;;-2.68;42.83;101648.56;24659;1327;3056500;-64
2022/12/04 10:13:23;;;;;;;3.90;1.70;;;;;;;-2.63;42.26;101650.75;24697;1320;3051908;-66
2022/12/04 10:16:04;;;;;;;5.40;2.00;;;;;;;-2.71;42.15;101646.39;24652;1326;3052962;-67
2022/12/04 10:18:42;;;;;;;3.80;1.70;;;;;;;-2.49;42.44;101645.15;24642;1327;3052490;-64
2022/12/04 10:21:29;;;;;;;4.40;2.20;;;;;;;-2.42;42.08;101648.79;24661;1327;3052998;-69
2022/12/04 10:24:33;;;;;;;4.80;2.10;;;;;;;-2.45;42.00;101643.02;24710;1319;3049184;-68
2022/12/04 10:27:08;;;;;;;5.90;1.70;;;;;;;-2.40;42.46;101638.38;24598;1318;3068004;-66
2022/12/04 10:29:37;;;;;;;7.70;2.50;;;;;;;-2.27;42.22;101634.90;24593;1327;3049532;-64
2022/12/04 10:32:26;;;;;;;7.10;2.70;;;;;;;-2.12;41.78;101634.45;24598;1327;3026070;-64
2022/12/04 10:35:23;;;;;;;4.30;2.20;;;;;;;-2.16;41.93;101631.77;24673;1320;3052070;-65
2022/12/04 10:38:03;;;;;;;4.30;2.10;;;;;;;-2.27;42.46;101624.95;24596;1319;3025739;-65
2022/12/04 10:40:35;;;;;;;4.90;2.30;;;;;;;-2.05;41.84;101627.60;24713;1327;3051423;-63
2022/12/04 10:43:16;;;;;;;4.00;2.20;;;;;;;-2.09;41.52;101618.05;24510;1327;3028925;-66
2022/12/04 10:45:45;;;;;;;6.70;2.20;;;;;;;-2.32;41.47;101627.59;25063;1325;3049332;-66
2022/12/04 10:48:20;;;;;;;5.90;2.10;;;;;;;-2.32;41.47;101618.13;24686;1318;3028140;-64
2022/12/04 10:50:49;;;;;;;6.40;2.60;;;;;;;-2.18;41.72;101621.93;24561;1326;3051034;-69
2022/12/04 10:53:18;;;;;;;7.70;2.90;;;;;;;-2.03;41.84;101617.68;24598;1320;3028608;-68
2022/12/04 10:55:47;;;;;;;5.70;2.00;;;;;;;-1.83;41.65;101616.46;24487;1330;3051761;-64
2022/12/04 10:58:17;;;;;;;10.50;3.00;;;;;;;-1.84;41.03;101623.31;24592;1321;3028283;-65
2022/12/04 11:01:02;;;;;;;8.00;2.30;;;;;;;-1.72;40.95;101624.61;24593;1327;3028995;-65
2022/12/04 11:03:31;;;;;;;10.80;2.80;;;;;;;-1.93;40.78;101630.80;24560;1320;3070269;-64
2022/12/04 11:06:03;;;;;;;5.50;2.00;;;;;;;-1.96;40.94;101627.30;24544;1329;3027055;-64
2022/12/04 11:08:47;;;;;;;6.50;2.80;;;;;;;-1.80;40.43;101629.58;24602;1327;3050090;-64
2022/12/04 11:11:23;;;;;;;5.90;2.50;;;;;;;-1.92;40.42;101626.20;24597;1327;3069025;-69
2022/12/04 11:14:01;;;;;;;10.00;2.80;;;;;;;-1.74;39.78;101630.77;24612;1319;3049745;-64
2022/12/04 11:16:39;;;;;;;4.50;1.80;;;;;;;-1.51;39.81;101625.30;24638;1330;3056712;-63
2022/12/04 11:19:27;;;;;;;8.30;2.70;;;;;;;-1.48;39.32;101622.95;24561;1330;3051291;-63
2022/12/04 11:22:09;;;;;;;5.50;2.30;;;;;;;-1.69;39.59;101624.19;24609;1333;3053559;-61
2022/12/04 11:24:39;;;;;;;5.20;2.00;;;;;;;-1.72;39.59;101628.75;24539;1320;3051684;-65
2022/12/04 11:27:20;;;;;;;6.40;2.60;;;;;;;-1.60;39.48;101628.86;24546;1333;3028388;-63
2022/12/04 11:29:52;;;;;;;10.10;2.90;;;;;;;-1.73;39.77;101629.94;24601;1316;3050935;-62
2022/12/04 11:32:25;;;;;;;8.10;2.70;;;;;;;-1.66;39.96;101620.82;24516;1322;3028262;-62
2022/12/04 11:35:03;;;;;;;9.50;2.50;;;;;;;-1.76;40.25;101614.22;24563;1326;3026348;-65
2022/12/04 11:37:33;;;;;;;10.90;2.10;;;;;;;-1.51;40.21;101613.97;24632;1318;3056393;-65
2022/12/04 11:40:13;;;;;;;6.40;2.40;;;;;;;-1.28;39.88;101610.88;24527;1319;3030734;-66
2022/12/04 11:42:42;;;;;;;5.10;1.90;;;;;;;-1.31;39.32;101605.64;24566;1326;3053902;-62
2022/12/04 11:45:20;;;;;;;9.80;2.40;;;;;;;-1.38;39.13;101602.41;24569;1327;3028202;-64
2022/12/04 11:47:57;;;;;;;6.80;2.50;;;;;;;-1.17;38.83;101603.71;24551;1327;3053699;-67
2022/12/04 11:50:36;;;;;;;4.90;1.80;;;;;;;-1.36;39.24;101606.73;24662;1327;3049399;-62
2022/12/04 11:53:37;;;;;;;6.30;2.30;;;;;;;-1.38;39.45;101614.09;24562;1320;3068940;-61